createdAt,value
2023-05-07T00:03:18.713Z,17.24
2023-05-07T00:04:50.800Z,17.26
2023-05-07T00:06:22.958Z,17.31
2023-05-07T00:07:54.131Z,17.30
2023-05-07T00:09:26.323Z,17.30
2023-05-07T00:10:57.476Z,17.26
2023-05-07T00:12:28.604Z,17.30
2023-05-07T00:13:59.762Z,17.31
2023-05-07T00:16:03.113Z,17.31
2023-05-07T00:17:35.347Z,17.33
2023-05-07T00:28:16.147Z,17.39
2023-05-07T00:48:49.039Z,16.97
2023-05-07T00:50:51.840Z,16.91
2023-05-07T00:52:23.422Z,16.79
2023-05-07T01:08:21.608Z,16.21
2023-05-07T01:10:24.966Z,16.20
2023-05-07T01:12:28.311Z,16.20
2023-05-07T01:38:47.820Z,16.26
2023-05-07T01:42:57.881Z,16.10
2023-05-07T01:45:00.608Z,16.02
2023-05-07T01:47:03.948Z,16.05
2023-05-07T01:53:23.980Z,16.08
2023-05-07T01:54:54.706Z,16.12
2023-05-07T01:56:25.876Z,16.16
2023-05-07T01:57:57.031Z,16.20
2023-05-07T02:03:15.824Z,16.16
2023-05-07T02:04:46.844Z,16.16
2023-05-07T02:06:18.032Z,16.15
2023-05-07T02:07:49.179Z,16.08
2023-05-07T02:18:18.551Z,16.13
2023-05-07T02:19:49.777Z,16.10
2023-05-07T02:21:20.683Z,16.09
2023-05-07T02:22:51.913Z,16.05
2023-05-07T02:25:10.270Z,16.04
2023-05-07T02:27:06.768Z,16.05
2023-05-07T02:35:32.056Z,16.21
2023-05-07T02:37:36.324Z,16.26
2023-05-07T02:40:10.021Z,16.15
2023-05-07T02:41:41.061Z,16.17
2023-05-07T03:01:29.090Z,15.73
2023-05-07T03:03:00.244Z,15.65
2023-05-07T03:08:19.583Z,15.54
2023-05-07T03:09:51.079Z,15.52
2023-05-07T03:11:23.285Z,15.49
2023-05-07T03:12:55.474Z,15.52
2023-05-07T03:23:43.691Z,15.33
2023-05-07T03:25:14.851Z,15.31
2023-05-07T03:33:18.040Z,15.37
2023-05-07T03:35:21.379Z,15.39
2023-05-07T03:36:53.547Z,15.36
2023-05-07T03:43:22.620Z,15.47
2023-05-07T03:44:54.783Z,15.49
2023-05-07T03:47:00.059Z,15.52
2023-05-07T03:48:31.201Z,15.52
2023-05-07T03:50:02.508Z,15.47
2023-05-07T03:51:33.572Z,15.47
2023-05-07T03:53:04.764Z,15.43
2023-05-07T03:55:07.631Z,15.33
2023-05-07T03:58:12.649Z,15.19
2023-05-07T03:59:43.823Z,15.19
2023-05-07T04:01:14.984Z,15.21
2023-05-07T04:02:47.286Z,15.21
2023-05-07T04:10:54.804Z,15.24
2023-05-07T04:12:25.754Z,15.29
2023-05-07T04:13:56.874Z,15.31
2023-05-07T04:15:27.560Z,15.29
2023-05-07T04:17:31.891Z,15.29
2023-05-07T04:19:04.000Z,15.25
2023-05-07T04:20:35.149Z,15.22
2023-05-07T04:22:37.490Z,15.18
2023-05-07T04:35:08.375Z,15.17
2023-05-07T05:03:59.562Z,15.10
2023-05-07T05:05:31.669Z,15.18
2023-05-07T05:39:00.186Z,15.90
2023-05-07T05:40:32.840Z,15.94
2023-05-07T05:42:03.497Z,15.97
2023-05-07T05:59:52.787Z,16.38
2023-05-07T06:01:55.611Z,16.42
2023-05-07T06:09:20.945Z,16.68
2023-05-07T06:11:51.263Z,16.75
2023-05-07T06:13:24.517Z,16.78
2023-05-07T06:14:54.056Z,16.87
2023-05-07T06:36:55.772Z,17.31
2023-05-07T06:43:55.823Z,17.59
2023-05-07T06:45:26.966Z,17.64
2023-05-07T06:46:59.397Z,17.71
2023-05-07T06:49:19.309Z,17.80
2023-05-07T07:04:37.455Z,18.08
2023-05-07T07:06:22.817Z,18.05
2023-05-07T07:07:53.519Z,18.05
2023-05-07T07:28:19.966Z,18.50
2023-05-07T07:32:47.435Z,18.58
2023-05-07T07:47:29.855Z,18.88
2023-05-07T07:55:23.990Z,19.07
2023-05-07T07:58:57.644Z,19.02
2023-05-07T08:01:00.339Z,18.95
2023-05-07T08:02:31.570Z,18.90
2023-05-07T08:04:03.049Z,18.86
2023-05-07T08:06:45.762Z,18.92
2023-05-07T08:13:48.039Z,19.09
2023-05-07T08:15:19.226Z,19.12
2023-05-07T08:20:00.220Z,19.22
2023-05-07T08:22:02.569Z,19.33
2023-05-07T08:23:46.190Z,19.41
2023-05-07T08:26:06.202Z,19.49
2023-05-07T08:28:24.498Z,19.52
2023-05-07T08:30:28.852Z,19.51
2023-05-07T08:32:31.313Z,19.58
2023-05-07T08:40:14.679Z,19.92
2023-05-07T08:43:19.282Z,19.96
2023-05-07T08:44:50.474Z,19.94
2023-05-07T08:46:22.006Z,19.96
2023-05-07T08:47:54.700Z,20.02
2023-05-07T08:53:24.771Z,20.28
2023-05-07T08:54:56.381Z,20.36
2023-05-07T08:56:27.567Z,20.41
2023-05-07T08:57:58.729Z,20.50
2023-05-07T08:59:30.373Z,20.43
2023-05-07T09:01:02.050Z,20.48
2023-05-07T09:18:17.836Z,20.90
2023-05-07T09:19:49.977Z,20.92
2023-05-07T09:21:21.135Z,20.95
2023-05-07T09:22:53.313Z,21.02
2023-05-07T09:35:20.183Z,21.45
2023-05-07T09:41:59.185Z,21.67
2023-05-07T09:52:26.314Z,21.79
2023-05-07T10:04:42.826Z,21.98
2023-05-07T10:06:13.517Z,22.06
2023-05-07T10:07:44.722Z,22.14
2023-05-07T10:23:59.506Z,22.57
2023-05-07T10:26:05.961Z,22.63
2023-05-07T10:27:50.551Z,22.65
2023-05-07T10:29:21.855Z,22.66
2023-05-07T10:31:25.520Z,22.75
2023-05-07T10:48:30.617Z,23.39
2023-05-07T10:49:58.966Z,23.37
2023-05-07T11:00:58.413Z,23.73
2023-05-07T11:03:01.838Z,23.78
2023-05-07T11:05:06.043Z,23.83
2023-05-07T11:06:35.306Z,23.81
2023-05-07T11:08:07.468Z,23.84
2023-05-07T11:54:55.624Z,24.63
2023-05-07T11:56:26.968Z,24.69
2023-05-07T12:13:31.339Z,25.18
2023-05-07T12:15:27.328Z,25.16
2023-05-07T12:17:11.138Z,25.22
2023-05-07T12:24:35.466Z,25.38
2023-05-07T12:26:07.976Z,25.32
2023-05-07T12:27:39.853Z,25.28
2023-05-07T12:43:41.824Z,25.11
2023-05-07T12:45:36.402Z,25.13
2023-05-07T12:48:04.109Z,25.14
2023-05-07T13:10:32.493Z,25.08
2023-05-07T13:12:34.923Z,25.10
2023-05-07T13:39:28.977Z,25.08
2023-05-07T13:41:01.109Z,25.10
2023-05-07T13:43:03.033Z,25.11
2023-05-07T14:03:17.232Z,24.89
2023-05-07T14:08:23.211Z,24.70
2023-05-07T14:10:26.722Z,24.69
2023-05-07T14:12:28.646Z,24.60
2023-05-07T15:18:25.643Z,22.45
2023-05-07T15:20:30.180Z,22.43
2023-05-07T15:23:03.779Z,22.35
2023-05-07T15:28:21.663Z,22.32
2023-05-07T15:29:52.831Z,22.30
2023-05-07T15:31:25.101Z,22.29
2023-05-07T15:33:26.824Z,22.25
2023-05-07T16:43:07.055Z,20.99
2023-05-07T16:46:12.451Z,20.93
2023-05-07T16:48:25.826Z,20.88
2023-05-07T16:49:56.977Z,20.87
2023-05-07T16:51:59.350Z,20.92
2023-05-07T16:53:30.584Z,20.88
2023-05-07T16:55:32.896Z,20.90
2023-05-07T16:57:04.083Z,20.88
2023-05-07T17:13:18.015Z,20.63
2023-05-07T17:14:50.967Z,20.60
2023-05-07T17:16:20.884Z,20.59
2023-05-07T17:17:52.067Z,20.62
2023-05-07T17:44:53.891Z,20.06
2023-05-07T17:47:12.244Z,20.06
2023-05-07T17:48:43.872Z,19.94
2023-05-07T17:50:16.077Z,19.79
2023-05-07T17:51:53.974Z,19.76
2023-05-07T17:53:31.643Z,19.67
2023-05-07T17:55:08.223Z,19.59
2023-05-07T17:57:11.710Z,19.48
2023-05-07T17:58:59.059Z,19.34
2023-05-07T18:40:25.884Z,18.08
2023-05-07T18:48:20.462Z,17.92
2023-05-07T19:43:50.781Z,18.00
2023-05-07T19:45:21.953Z,18.00
2023-05-07T19:46:53.257Z,18.00
2023-05-07T20:13:54.810Z,17.92
2023-05-07T20:27:57.520Z,17.79
2023-05-07T20:33:03.137Z,17.72
2023-05-07T21:08:21.878Z,17.36
2023-05-07T21:09:53.058Z,17.39
2023-05-07T21:11:24.515Z,17.38
2023-05-07T21:12:55.716Z,17.39
2023-05-07T21:14:26.868Z,17.33
2023-05-07T21:15:58.075Z,17.30
2023-05-07T21:18:01.361Z,17.27
2023-05-07T21:23:19.231Z,17.24
2023-05-07T21:24:50.455Z,17.26
2023-05-07T21:26:55.825Z,17.26
2023-05-07T21:33:55.458Z,17.15
2023-05-07T21:35:59.303Z,17.14
2023-05-07T21:37:31.506Z,17.06
2023-05-07T21:43:56.827Z,17.02
2023-05-07T21:45:28.034Z,17.01
2023-05-07T21:47:01.471Z,16.99
2023-05-07T22:13:25.565Z,16.71
2023-05-07T22:15:27.806Z,16.71
2023-05-07T22:16:58.982Z,16.75
2023-05-07T22:20:05.600Z,16.83
2023-05-07T22:23:23.917Z,16.81
2023-05-07T22:24:55.380Z,16.84
2023-05-07T22:26:27.890Z,16.86
2023-05-07T22:28:30.261Z,16.81
2023-05-07T22:30:36.520Z,16.79
2023-05-07T22:32:09.850Z,16.76
2023-05-07T22:39:28.194Z,16.79
2023-05-07T22:40:59.384Z,16.79
2023-05-07T22:42:30.580Z,16.78
2023-05-07T22:44:01.763Z,16.79
2023-05-07T22:45:32.978Z,16.75
2023-05-07T22:47:04.929Z,16.72
2023-05-07T22:53:22.796Z,16.65
2023-05-07T22:54:55.694Z,16.61
2023-05-07T22:56:58.076Z,16.57
2023-05-07T22:58:27.417Z,16.54
2023-05-07T23:00:29.752Z,16.51
2023-05-07T23:02:00.949Z,16.50
2023-05-07T23:04:34.045Z,16.49
2023-05-07T23:06:05.204Z,16.46
2023-05-07T23:08:07.568Z,16.42
2023-05-07T23:18:55.205Z,16.36
2023-05-07T23:20:25.907Z,16.36
2023-05-07T23:21:58.083Z,16.39
2023-05-07T23:24:41.489Z,16.41
2023-05-07T23:44:53.228Z,16.28
2023-05-07T23:46:23.926Z,16.17
2023-05-07T23:47:55.176Z,16.04
2023-05-07T23:53:24.622Z,15.94
